createdAt,value
2022-10-30T00:00:47.093Z,86591.66
2022-10-30T00:03:15.064Z,86606.88
2022-10-30T00:05:47.394Z,86595.78
2022-10-30T00:08:16.654Z,86601.34
2022-10-30T00:10:44.358Z,86596.44
2022-10-30T00:13:12.341Z,86606.09
2022-10-30T00:15:39.294Z,86580.47
2022-10-30T00:18:06.308Z,86606.81
2022-10-30T00:20:33.299Z,86604.00
2022-10-30T00:23:00.477Z,86565.28
2022-10-30T00:25:27.650Z,86570.78
2022-10-30T00:27:54.553Z,86594.31
2022-10-30T00:30:21.468Z,86595.69
2022-10-30T00:32:48.395Z,86563.84
2022-10-30T00:35:15.719Z,86594.28
2022-10-30T00:37:42.564Z,86590.13
2022-10-30T00:40:15.390Z,86588.75
2022-10-30T00:42:43.145Z,86581.84
2022-10-30T00:45:14.919Z,86581.84
2022-10-30T00:47:54.908Z,86556.25
2022-10-30T00:50:30.800Z,86574.25
2022-10-30T00:53:03.308Z,86565.28
2022-10-30T00:55:38.234Z,86578.44
2022-10-30T00:58:07.987Z,86568.06
2022-10-30T01:00:39.399Z,86545.91
2022-10-30T01:03:06.546Z,86558.44
2022-10-30T01:05:34.775Z,86559.06
2022-10-30T01:08:01.961Z,86555.63
2022-10-30T01:10:29.096Z,86555.69
2022-10-30T01:12:58.748Z,86558.44
2022-10-30T01:15:35.442Z,86550.09
2022-10-30T01:18:18.235Z,86555.63
2022-10-30T01:20:54.366Z,86546.69
2022-10-30T01:23:46.021Z,86546.69
2022-10-30T01:26:28.823Z,86545.97
2022-10-30T01:29:07.270Z,86540.44
2022-10-30T01:31:41.489Z,86523.78
2022-10-30T01:34:47.605Z,86532.13
2022-10-30T01:37:39.224Z,86493.34
2022-10-30T01:40:12.141Z,86498.91
2022-10-30T01:42:44.373Z,86529.34
2022-10-30T01:45:19.772Z,86493.31
2022-10-30T01:47:49.751Z,86542.47
2022-10-30T01:50:22.683Z,86534.91
2022-10-30T01:53:08.549Z,86532.81
2022-10-30T01:55:57.794Z,86525.16
2022-10-30T01:58:42.265Z,86525.88
2022-10-30T02:01:09.350Z,86514.78
2022-10-30T02:03:36.663Z,86507.19
2022-10-30T02:06:03.750Z,86501.63
2022-10-30T02:08:30.762Z,86514.81
2022-10-30T02:10:58.846Z,86499.59
2022-10-30T02:13:39.627Z,86488.50
2022-10-30T02:16:09.049Z,86521.00
2022-10-30T02:18:36.421Z,86520.34
2022-10-30T02:21:03.830Z,86503.00
2022-10-30T02:23:33.301Z,86493.31
2022-10-30T02:26:00.275Z,86484.94
2022-10-30T02:28:27.876Z,86514.75
2022-10-30T02:30:55.109Z,86478.69
2022-10-30T02:33:23.570Z,86527.84
2022-10-30T02:35:51.513Z,86518.22
2022-10-30T02:38:18.886Z,86521.66
2022-10-30T02:40:45.857Z,86523.69
2022-10-30T02:43:12.794Z,86524.34
2022-10-30T02:45:39.679Z,86524.28
2022-10-30T02:48:07.557Z,86516.00
2022-10-30T02:50:34.603Z,86499.38
2022-10-30T02:53:01.605Z,86518.03
2022-10-30T02:55:28.773Z,86495.88
2022-10-30T02:57:55.815Z,86461.84
2022-10-30T03:00:22.779Z,86477.06
2022-10-30T03:02:55.058Z,86497.88
2022-10-30T03:05:22.445Z,86501.41
2022-10-30T03:07:49.710Z,86511.03
2022-10-30T03:10:16.681Z,86482.72
2022-10-30T03:12:43.935Z,86485.47
2022-10-30T03:15:11.231Z,86495.13
2022-10-30T03:17:38.175Z,86506.19
2022-10-30T03:20:05.485Z,86503.38
2022-10-30T03:22:33.349Z,86473.59
2022-10-30T03:25:00.294Z,86494.31
2022-10-30T03:27:27.285Z,86516.47
2022-10-30T03:29:54.174Z,86506.09
2022-10-30T03:32:21.150Z,86477.66
2022-10-30T03:34:53.068Z,86510.25
2022-10-30T03:37:20.074Z,86472.06
2022-10-30T03:39:47.001Z,86513.63
2022-10-30T03:42:13.848Z,86485.25
2022-10-30T03:44:40.797Z,86501.16
2022-10-30T03:47:08.459Z,86514.97
2022-10-30T03:49:40.328Z,86510.91
2022-10-30T03:52:11.165Z,86514.97
2022-10-30T03:54:38.039Z,86507.28
2022-10-30T03:57:04.985Z,86496.19
2022-10-30T03:59:41.325Z,86516.25
2022-10-30T04:02:40.378Z,86514.84
2022-10-30T04:05:09.024Z,86483.00
2022-10-30T04:07:35.931Z,86489.31
2022-10-30T04:10:03.144Z,86470.50
2022-10-30T04:12:30.141Z,86494.72
2022-10-30T04:14:57.053Z,86507.25
2022-10-30T04:17:23.983Z,86489.88
2022-10-30T04:19:51.059Z,86497.53
2022-10-30T04:22:18.004Z,86493.97
2022-10-30T04:24:45.479Z,86436.50
2022-10-30T04:27:13.449Z,86485.56
2022-10-30T04:29:42.224Z,86500.16
2022-10-30T04:32:10.754Z,86502.22
2022-10-30T04:34:39.542Z,86463.47
2022-10-30T04:37:07.290Z,86488.28
2022-10-30T04:39:34.287Z,86446.78
2022-10-30T04:42:13.266Z,86500.84
2022-10-30T04:44:42.358Z,86508.41
2022-10-30T04:47:10.777Z,86497.94
2022-10-30T04:49:38.144Z,86503.59
2022-10-30T04:52:05.033Z,86504.97
2022-10-30T04:54:32.008Z,86509.09
2022-10-30T04:56:59.156Z,86511.84
2022-10-30T04:59:26.101Z,86434.25
2022-10-30T05:01:54.424Z,86462.59
2022-10-30T05:04:21.502Z,86482.66
2022-10-30T05:06:48.533Z,86511.09
2022-10-30T05:09:16.252Z,86494.50
2022-10-30T05:11:43.209Z,86487.56
2022-10-30T05:14:10.154Z,86479.78
2022-10-30T05:16:38.128Z,86506.81
2022-10-30T05:19:05.487Z,86481.88
2022-10-30T05:21:34.065Z,86470.06
2022-10-30T05:24:01.380Z,86484.66
2022-10-30T05:26:34.278Z,86481.28
2022-10-30T05:29:01.278Z,86497.09
2022-10-30T05:31:28.744Z,86501.91
2022-10-30T05:34:14.155Z,86508.22
2022-10-30T05:36:41.926Z,86493.69
2022-10-30T05:39:10.136Z,86517.16
2022-10-30T05:41:41.001Z,86517.25
2022-10-30T05:44:08.296Z,86503.34
2022-10-30T05:46:35.215Z,86474.28
2022-10-30T05:49:18.272Z,86499.22
2022-10-30T05:51:45.439Z,86513.13
2022-10-30T05:54:12.621Z,86517.97
2022-10-30T05:56:51.125Z,86517.28
2022-10-30T05:59:18.261Z,86510.38
2022-10-30T06:04:12.865Z,86489.59
2022-10-30T06:06:40.623Z,86521.50
2022-10-30T06:09:07.522Z,86502.72
2022-10-30T06:11:54.501Z,86500.66
2022-10-30T06:14:28.909Z,86497.25
2022-10-30T06:16:55.902Z,86534.00
2022-10-30T06:19:31.786Z,86532.59
2022-10-30T06:22:11.426Z,86532.06
2022-10-30T06:24:46.107Z,86535.53
2022-10-30T06:27:36.417Z,86536.22
2022-10-30T06:30:06.262Z,86543.81
2022-10-30T06:32:33.410Z,86508.53
2022-10-30T06:35:00.591Z,86478.19
2022-10-30T06:37:28.322Z,86473.31
2022-10-30T06:39:55.304Z,86536.44
2022-10-30T06:42:46.411Z,86512.97
2022-10-30T06:45:28.970Z,86515.75
2022-10-30T06:47:56.642Z,86524.09
2022-10-30T06:50:24.555Z,86525.59
2022-10-30T06:52:51.816Z,86529.06
2022-10-30T06:55:18.758Z,86549.94
2022-10-30T06:58:04.445Z,86543.81
2022-10-30T07:00:42.069Z,86543.19
2022-10-30T07:03:32.779Z,86498.25
2022-10-30T07:05:59.870Z,86544.69
2022-10-30T07:08:27.122Z,86498.41
2022-10-30T07:10:57.973Z,86537.19
2022-10-30T07:13:53.985Z,86518.53
2022-10-30T07:16:35.591Z,86526.88
2022-10-30T07:19:04.729Z,86536.53
2022-10-30T07:21:33.494Z,86495.06
2022-10-30T07:24:05.338Z,86477.06
2022-10-30T07:26:44.333Z,86531.69
2022-10-30T07:29:40.321Z,86530.97
2022-10-30T07:32:32.962Z,86532.25
2022-10-30T07:35:35.567Z,86505.28
2022-10-30T07:38:37.880Z,86451.34
2022-10-30T07:41:25.260Z,86541.03
2022-10-30T07:44:12.003Z,86527.88
2022-10-30T07:46:46.902Z,86507.00
2022-10-30T07:49:32.273Z,86535.91
2022-10-30T07:52:05.263Z,86534.44
2022-10-30T07:54:32.481Z,86537.16
2022-10-30T07:57:09.509Z,86503.81
2022-10-30T08:00:07.366Z,86530.63
2022-10-30T08:02:40.614Z,86517.41
2022-10-30T08:05:20.058Z,86516.53
2022-10-30T08:08:05.134Z,86522.47
2022-10-30T08:10:32.191Z,86525.06
2022-10-30T08:12:59.137Z,86513.84
2022-10-30T08:15:26.187Z,86480.66
2022-10-30T08:17:54.385Z,86492.22
2022-10-30T08:20:24.426Z,86518.91
2022-10-30T08:22:57.090Z,86476.06
2022-10-30T08:25:30.623Z,86499.22
2022-10-30T08:27:58.148Z,86517.66
2022-10-30T08:30:30.170Z,86522.25
2022-10-30T08:33:03.724Z,86484.94
2022-10-30T08:35:58.054Z,86517.84
2022-10-30T08:38:27.357Z,86523.88
2022-10-30T08:41:12.398Z,86501.81
2022-10-30T08:43:46.267Z,86516.03
2022-10-30T08:46:13.266Z,86526.78
2022-10-30T08:48:41.072Z,86501.91
2022-10-30T08:51:08.131Z,86529.25
2022-10-30T08:53:38.017Z,86497.34
2022-10-30T08:56:10.003Z,86500.47
2022-10-30T08:58:57.180Z,86515.38
2022-10-30T09:01:24.142Z,86514.63
2022-10-30T09:04:20.426Z,86452.41
2022-10-30T09:07:19.482Z,86505.81
2022-10-30T09:10:05.036Z,86517.22
2022-10-30T09:12:34.204Z,86520.63
2022-10-30T09:15:01.706Z,86455.00
2022-10-30T09:17:30.760Z,86495.28
2022-10-30T09:19:57.641Z,86517.00
2022-10-30T09:22:33.852Z,86508.41
2022-10-30T09:25:01.888Z,86500.72
2022-10-30T09:27:47.414Z,86450.25
2022-10-30T09:30:16.348Z,86463.22
2022-10-30T09:32:46.674Z,86473.13
2022-10-30T09:35:19.001Z,86488.53
2022-10-30T09:37:45.982Z,86499.91
2022-10-30T09:40:29.917Z,86493.94
2022-10-30T09:43:08.875Z,86476.00
2022-10-30T09:45:57.410Z,86475.69
2022-10-30T09:48:46.307Z,86487.88
2022-10-30T09:51:20.205Z,86486.28
2022-10-30T09:54:00.546Z,86486.06
2022-10-30T09:56:40.057Z,86458.94
2022-10-30T09:59:28.455Z,86478.38
2022-10-30T10:02:04.364Z,86484.50
2022-10-30T10:05:06.315Z,86475.34
2022-10-30T10:08:02.487Z,86473.97
2022-10-30T10:10:53.467Z,86421.06
2022-10-30T10:13:36.233Z,86463.19
2022-10-30T10:16:36.768Z,86461.78
2022-10-30T10:19:09.829Z,86464.53
2022-10-30T10:21:44.101Z,86443.22
2022-10-30T10:24:38.634Z,86464.09
2022-10-30T10:27:56.166Z,86440.84
2022-10-30T10:30:24.971Z,86451.75
2022-10-30T10:33:07.029Z,86457.09
2022-10-30T10:35:42.129Z,86437.78
2022-10-30T10:38:15.174Z,86455.22
2022-10-30T10:40:57.398Z,86443.72
2022-10-30T10:43:53.915Z,86454.81
2022-10-30T10:46:39.239Z,86460.69
2022-10-30T10:49:08.761Z,86451.44
2022-10-30T10:51:42.318Z,86450.63
2022-10-30T10:54:22.726Z,86453.84
2022-10-30T10:56:52.068Z,86443.19
2022-10-30T10:59:30.232Z,86447.81
2022-10-30T11:02:36.147Z,86445.22
2022-10-30T11:05:43.136Z,86422.84
2022-10-30T11:08:22.700Z,86424.06
2022-10-30T11:10:56.812Z,86423.94
2022-10-30T11:13:27.920Z,86429.81
2022-10-30T11:16:36.896Z,86427.31
2022-10-30T11:19:08.185Z,86424.28
2022-10-30T11:21:42.091Z,86420.03
2022-10-30T11:24:29.654Z,86423.38
2022-10-30T11:26:58.744Z,86382.75
2022-10-30T11:29:30.123Z,86391.25
2022-10-30T11:32:05.775Z,86395.56
2022-10-30T11:34:36.373Z,86413.50
2022-10-30T11:37:04.744Z,86409.25
2022-10-30T11:39:35.675Z,86404.38
2022-10-30T11:42:04.820Z,86404.09
2022-10-30T11:44:36.209Z,86401.13
2022-10-30T11:47:04.855Z,86408.66
2022-10-30T11:49:45.059Z,86403.03
2022-10-30T11:52:15.143Z,86399.38
2022-10-30T11:54:48.476Z,86388.50
2022-10-30T11:57:18.149Z,86390.94
2022-10-30T11:59:47.459Z,86384.25
2022-10-30T12:02:22.388Z,86391.13
2022-10-30T12:04:51.592Z,86389.56
2022-10-30T12:07:24.305Z,86381.69
2022-10-30T12:09:51.491Z,86383.50
2022-10-30T12:12:18.320Z,86379.69
2022-10-30T12:14:45.327Z,86380.09
2022-10-30T12:17:15.928Z,86386.22
2022-10-30T12:19:49.665Z,86347.66
2022-10-30T12:22:31.583Z,86346.75
2022-10-30T12:25:02.201Z,86369.00
2022-10-30T12:27:31.998Z,86378.91
2022-10-30T12:30:09.912Z,86381.28
2022-10-30T12:32:47.108Z,86375.81
2022-10-30T12:35:26.025Z,86380.63
2022-10-30T12:37:54.943Z,86367.84
2022-10-30T12:40:28.304Z,86348.50
2022-10-30T12:43:12.019Z,86355.25
2022-10-30T12:45:45.643Z,86380.38
2022-10-30T12:48:22.152Z,86381.94
2022-10-30T12:51:15.937Z,86382.13
2022-10-30T12:54:12.294Z,86372.28
2022-10-30T12:56:44.564Z,86386.75
2022-10-30T12:59:39.534Z,86380.09
2022-10-30T13:02:30.395Z,86383.59
2022-10-30T13:05:02.749Z,86388.97
2022-10-30T13:07:55.616Z,86380.84
2022-10-30T13:11:14.900Z,86366.34
2022-10-30T13:13:48.499Z,86389.44
2022-10-30T13:16:36.216Z,86367.41
2022-10-30T13:19:04.053Z,86386.72
2022-10-30T13:21:51.755Z,86382.25
2022-10-30T13:24:28.941Z,86368.91
2022-10-30T13:27:10.305Z,86370.03
2022-10-30T13:30:09.825Z,86385.84
2022-10-30T13:33:07.943Z,86387.19
2022-10-30T13:35:43.686Z,86377.28
2022-10-30T13:38:16.217Z,86381.69
2022-10-30T13:40:49.510Z,86369.44
2022-10-30T13:43:25.249Z,86391.41
2022-10-30T13:46:24.523Z,86364.06
2022-10-30T13:49:08.823Z,86383.28
2022-10-30T13:51:45.776Z,86389.66
2022-10-30T13:54:39.441Z,86387.69
2022-10-30T13:57:20.365Z,86372.88
2022-10-30T13:59:50.565Z,86396.72
2022-10-30T14:02:43.799Z,86388.38
2022-10-30T14:05:41.837Z,86392.25
2022-10-30T14:08:37.825Z,86397.00
2022-10-30T14:11:14.107Z,86394.72
2022-10-30T14:13:58.536Z,86382.69
2022-10-30T14:16:42.124Z,86382.22
2022-10-30T14:19:16.536Z,86380.44
2022-10-30T14:21:44.687Z,86401.69
2022-10-30T14:24:19.866Z,86373.34
2022-10-30T14:26:52.702Z,86374.06
2022-10-30T14:29:35.706Z,86383.81
2022-10-30T14:32:14.614Z,86388.56
2022-10-30T14:34:50.512Z,86383.09
2022-10-30T14:37:38.509Z,86392.94
2022-10-30T14:40:34.455Z,86386.72
2022-10-30T14:43:08.730Z,86392.00
2022-10-30T14:45:49.641Z,86344.56
2022-10-30T14:48:26.891Z,86393.84
2022-10-30T14:51:03.891Z,86393.91
2022-10-30T14:53:53.094Z,86395.31
2022-10-30T14:56:47.969Z,86394.13
2022-10-30T14:59:14.801Z,86391.91
2022-10-30T15:01:44.884Z,86392.72
2022-10-30T15:04:30.677Z,86395.16
2022-10-30T15:07:16.459Z,86389.25
2022-10-30T15:10:05.081Z,86401.38
2022-10-30T15:13:02.191Z,86391.53
2022-10-30T15:15:30.221Z,86384.00
2022-10-30T15:18:01.569Z,86377.47
2022-10-30T15:20:34.102Z,86350.13
2022-10-30T15:23:04.858Z,86379.00
2022-10-30T15:25:37.027Z,86383.16
2022-10-30T15:28:04.525Z,86396.47
2022-10-30T15:30:31.427Z,86393.25
2022-10-30T15:32:58.720Z,86353.59
2022-10-30T15:35:28.161Z,86358.28
2022-10-30T15:38:05.337Z,86382.44
2022-10-30T15:40:35.065Z,86392.22
2022-10-30T15:43:04.877Z,86400.06
2022-10-30T15:45:41.318Z,86401.13
2022-10-30T15:48:32.862Z,86391.44
2022-10-30T15:51:01.203Z,86386.03
2022-10-30T15:54:03.500Z,86334.09
2022-10-30T15:56:59.859Z,86388.25
2022-10-30T15:59:30.609Z,86385.72
2022-10-30T16:01:58.851Z,86392.16
2022-10-30T16:04:31.302Z,86399.34
2022-10-30T16:07:04.566Z,86395.81
2022-10-30T16:09:31.612Z,86398.69
2022-10-30T16:12:00.729Z,86384.50
2022-10-30T16:14:35.958Z,86397.78
2022-10-30T16:17:06.406Z,86400.75
2022-10-30T16:19:42.622Z,86398.22
2022-10-30T16:22:16.566Z,86402.44
2022-10-30T16:24:43.808Z,86407.56
2022-10-30T16:27:21.711Z,86406.84
2022-10-30T16:29:56.032Z,86408.94
2022-10-30T16:32:26.304Z,86404.63
2022-10-30T16:35:04.171Z,86393.50
2022-10-30T16:37:36.597Z,86380.41
2022-10-30T16:40:13.475Z,86362.00
2022-10-30T16:42:40.796Z,86405.94
2022-10-30T16:45:10.618Z,86405.94
2022-10-30T16:47:41.055Z,86400.50
2022-10-30T16:50:12.772Z,86406.63
2022-10-30T16:52:39.760Z,86368.28
2022-10-30T16:55:22.846Z,86363.59
2022-10-30T16:57:58.565Z,86382.94
2022-10-30T17:00:30.554Z,86410.59
2022-10-30T17:03:11.331Z,86378.94
2022-10-30T17:05:40.752Z,86411.28
2022-10-30T17:08:31.288Z,86406.47
2022-10-30T17:11:02.808Z,86349.63
2022-10-30T17:13:36.484Z,86406.53
2022-10-30T17:16:36.189Z,86413.56
2022-10-30T17:19:38.705Z,86410.72
2022-10-30T17:22:13.943Z,86407.94
2022-10-30T17:24:41.024Z,86407.31
2022-10-30T17:27:30.801Z,86418.41
2022-10-30T17:29:57.974Z,86414.88
2022-10-30T17:33:02.776Z,86374.25
2022-10-30T17:35:30.144Z,86420.28
2022-10-30T17:37:59.812Z,86423.81
2022-10-30T17:40:29.762Z,86383.28
2022-10-30T17:42:56.661Z,86423.91
2022-10-30T17:45:23.519Z,86402.03
2022-10-30T17:47:50.329Z,86419.63
2022-10-30T17:50:17.582Z,86416.28
2022-10-30T17:52:44.578Z,86419.03
2022-10-30T17:55:25.396Z,86421.84
2022-10-30T17:57:52.656Z,86416.91
2022-10-30T18:00:19.962Z,86399.72
2022-10-30T18:02:47.251Z,86416.88
2022-10-30T18:05:20.035Z,86405.81
2022-10-30T18:07:47.172Z,86383.81
2022-10-30T18:10:14.599Z,86414.63
2022-10-30T18:12:41.672Z,86411.81
2022-10-30T18:15:35.812Z,86418.81
2022-10-30T18:18:03.871Z,86388.44
2022-10-30T18:20:31.318Z,86414.66
2022-10-30T18:22:58.742Z,86401.00
2022-10-30T18:25:33.423Z,86381.88
2022-10-30T18:28:00.492Z,86394.09
2022-10-30T18:30:29.174Z,86403.81
2022-10-30T18:32:56.981Z,86412.78
2022-10-30T18:35:37.999Z,86415.50
2022-10-30T18:38:06.612Z,86399.69
2022-10-30T18:40:33.624Z,86384.66
2022-10-30T18:43:01.567Z,86418.34
2022-10-30T18:45:41.028Z,86384.06
2022-10-30T18:48:09.018Z,86396.59
2022-10-30T18:50:37.154Z,86411.16
2022-10-30T18:53:06.686Z,86386.19
2022-10-30T18:55:36.652Z,86420.50
2022-10-30T18:58:04.549Z,86420.53
2022-10-30T19:00:45.060Z,86429.56
2022-10-30T19:03:19.169Z,86413.66
2022-10-30T19:05:47.353Z,86412.28
2022-10-30T19:08:14.706Z,86400.00
2022-10-30T19:10:44.769Z,86400.72
2022-10-30T19:13:22.217Z,86420.00
2022-10-30T19:15:59.942Z,86422.13
2022-10-30T19:18:28.532Z,86398.63
2022-10-30T19:21:04.496Z,86416.56
2022-10-30T19:23:33.388Z,86418.06
2022-10-30T19:26:00.443Z,86400.16
2022-10-30T19:28:27.442Z,86404.84
2022-10-30T19:30:54.976Z,86415.22
2022-10-30T19:33:23.665Z,86413.78
2022-10-30T19:35:58.444Z,86390.47
2022-10-30T19:38:56.210Z,86412.50
2022-10-30T19:41:25.034Z,86413.88
2022-10-30T19:43:53.115Z,86400.13
2022-10-30T19:46:21.018Z,86407.03
2022-10-30T19:48:57.123Z,86413.91
2022-10-30T19:51:25.493Z,86398.94
2022-10-30T19:53:54.059Z,86396.19
2022-10-30T19:56:21.755Z,86420.97
2022-10-30T19:58:49.118Z,86419.63
2022-10-30T20:01:16.474Z,86378.91
2022-10-30T20:03:43.668Z,86415.56
2022-10-30T20:06:14.348Z,86423.81
2022-10-30T20:08:42.166Z,86409.97
2022-10-30T20:11:09.065Z,86417.63
2022-10-30T20:13:37.354Z,86409.50
2022-10-30T20:16:05.410Z,86426.63
2022-10-30T20:18:34.752Z,86409.28
2022-10-30T20:21:04.692Z,86419.78
2022-10-30T20:23:32.197Z,86348.28
2022-10-30T20:26:25.199Z,86413.63
2022-10-30T20:28:53.001Z,86388.97
2022-10-30T20:35:44.110Z,86397.34
2022-10-30T22:08:39.247Z,86365.03
2022-10-30T22:11:10.899Z,86339.53
2022-10-30T22:13:38.709Z,86378.22
2022-10-30T22:19:01.664Z,86369.22
2022-10-30T22:24:55.405Z,86372.78
2022-10-30T22:27:22.333Z,86371.34
2022-10-30T22:29:49.347Z,86378.28
2022-10-30T22:32:16.314Z,86371.34
2022-10-30T22:34:43.323Z,86365.75
2022-10-30T22:37:10.223Z,86369.88
2022-10-30T22:39:37.273Z,86358.75
2022-10-30T22:42:04.216Z,86360.91
2022-10-30T22:44:31.111Z,86344.38
2022-10-30T22:46:58.007Z,86331.22
2022-10-30T22:49:24.996Z,86369.16
2022-10-30T22:51:51.855Z,86362.09
2022-10-30T22:54:18.751Z,86351.81
2022-10-30T22:56:45.558Z,86338.09
2022-10-30T22:59:13.772Z,86357.38
2022-10-30T23:01:41.982Z,86365.69
2022-10-30T23:04:11.752Z,86360.81
2022-10-30T23:06:38.787Z,86360.13
2022-10-30T23:09:16.229Z,86353.16
2022-10-30T23:16:01.716Z,86355.97
2022-10-30T23:18:28.985Z,86318.81
2022-10-30T23:21:01.149Z,86338.09
2022-10-30T23:23:28.617Z,86302.34
2022-10-30T23:25:55.696Z,86295.47
2022-10-30T23:28:22.626Z,86338.81
2022-10-30T23:30:49.566Z,86340.81
2022-10-30T23:33:16.464Z,86319.53
2022-10-30T23:35:43.402Z,86316.19
2022-10-30T23:38:35.031Z,86337.47
2022-10-30T23:41:01.913Z,86344.41
2022-10-30T23:43:28.828Z,86339.69
2022-10-30T23:45:55.775Z,86343.88
2022-10-30T23:48:22.666Z,86329.91
2022-10-30T23:50:49.535Z,86316.16
2022-10-30T23:53:16.447Z,86333.38
2022-10-30T23:55:54.638Z,86334.00
2022-10-30T23:58:21.995Z,86306.59
